Gold Beach, OR

11:26 AM PDT on September 17, 2014 (GMT -0700)
Weather Hawk | Change Station
CLOSE
Current Station
Personal Weather Station
Location: Gold Beach, OR
Elevation: 128 ft
Nearby Weather Stations

Elev 128 ft 42.53 °N, 124.39 °W | Updated 8 seconds ago

Mostly Cloudy
Mostly Cloudy
62.4 °F
Feels Like 62.4 °F
N
0.7
Wind Variable Wind from NW
Gusts 2.2 mph

Today
High -- | Low -- °F
--% Chance of Precip.
Yesterday
High -- | Low -- °F
Precip. -- in
6:59 AM 7:23 PM
Waning Crescent, 34% visible
Pressure 29.80 in
Visibility 4.0 miles
Clouds Overcast 400 ft
Dew Point 58 °F
Humidity 87%
Rainfall 0.00 in
Snow Depth 0 in , 1 in , 1 in
UV 2 out of 12
Pollen 4.20 out of 12
Air Quality Not available.
Flu Activity Not available.
SPECI KBOK 171815Z AUTO 16004KT 4SM -RA BR OVC004 14/14 A2980 RMK AO2 CIG 002V008 RAB1759 P0000

More Conditions Fewer Conditions

Pressure 29.80 in
Visibility 4.0 miles
Clouds Overcast 400 ft
Dew Point 58 °F
Humidity 87%
Rainfall 0.00 in
Snow Depth 0 in , 1 in , 1 in
UV 2 out of 12
Pollen 4.20 out of 12
Air Quality Not available.
Flu Activity Not available.
SPECI KBOK 171815Z AUTO 16004KT 4SM -RA BR OVC004 14/14 A2980 RMK AO2 CIG 002V008 RAB1759 P0000

More Conditions Fewer Conditions

10-Day Weather Forecast

Almanac

Astronomy

Sep. 17, 2014 Rise Set
Actual Time 6:59 AM PDT 7:23 PM PDT
Civil Twilight 6:31 AM PDT 7:51 PM PDT
Nautical Twilight 5:58 AM PDT 8:24 PM PDT
Astronomical Twilight 5:24 AM PDT 8:58 PM PDT
Moon 12:59 AM PDT 3:42 PM PDT
Length of Visible Light 13h 20m
Length of Day
12h 23m
Tomorrow will be 2m 50s shorter.
Waning Crescent, 34% of the Moon is Illuminated
Today
Waning Crescent
Sep 24
New
Oct 1
First Quarter
Oct 8
Full
Oct 15
Last Quarter

Today's Extremes

State Highs State Lows

Community

WunderPhotos

Upload Photos

1,754,123 photos uploaded!

WunderBlogs® & News

Nearby

Snow Depth

Station Depth Elevation
Red Hill 0 in 4400 ft
Mt. Howard 1 in 7910 ft
Schneider Meadows 1 in 5400 ft
Irish Taylor 0 in 5500 ft
Peavine Ridge 0 in 3500 ft

Earthquake Activity

City Distance Mag. Time & Date
No recent earthquake activity has been reported nearby.
Minimum magnitude displayed is 2.5.

Coastal Water Temperatures

Place Temperature
Port Orford, OR 55.9 °F
Crescent City, CA 60.1 °F
Charleston, OR 53.1 °F

Nearby Weather Stations